sensor_id;sensor_type;location;lat;lon;timestamp;temperature;humidity
67093;SHT31;54011;50.772;7.730;2023-03-03T00:02:20;2.69;66.73
67093;SHT31;54011;50.772;7.730;2023-03-03T00:04:46;2.71;67.08
67093;SHT31;54011;50.772;7.730;2023-03-03T00:07:11;2.60;67.40
67093;SHT31;54011;50.772;7.730;2023-03-03T00:09:39;2.69;67.42
67093;SHT31;54011;50.772;7.730;2023-03-03T00:12:26;2.53;67.28
67093;SHT31;54011;50.772;7.730;2023-03-03T00:14:52;2.57;67.73
67093;SHT31;54011;50.772;7.730;2023-03-03T00:17:27;2.21;67.70
67093;SHT31;54011;50.772;7.730;2023-03-03T00:19:54;2.38;68.03
67093;SHT31;54011;50.772;7.730;2023-03-03T00:22:28;2.14;68.73
67093;SHT31;54011;50.772;7.730;2023-03-03T00:25:27;2.14;69.00
67093;SHT31;54011;50.772;7.730;2023-03-03T00:27:53;2.34;68.96
67093;SHT31;54011;50.772;7.730;2023-03-03T00:30:23;2.35;68.84
67093;SHT31;54011;50.772;7.730;2023-03-03T00:32:53;2.56;68.11
67093;SHT31;54011;50.772;7.730;2023-03-03T00:35:32;2.00;68.62
67093;SHT31;54011;50.772;7.730;2023-03-03T00:38:13;1.84;69.10
67093;SHT31;54011;50.772;7.730;2023-03-03T00:40:40;1.64;69.70
67093;SHT31;54011;50.772;7.730;2023-03-03T00:43:17;1.80;69.19
67093;SHT31;54011;50.772;7.730;2023-03-03T00:45:54;1.57;69.97
67093;SHT31;54011;50.772;7.730;2023-03-03T00:50:59;1.77;69.48
67093;SHT31;54011;50.772;7.730;2023-03-03T00:53:27;1.83;69.62
67093;SHT31;54011;50.772;7.730;2023-03-03T00:55:52;1.67;70.23
67093;SHT31;54011;50.772;7.730;2023-03-03T00:58:19;1.68;70.48
67093;SHT31;54011;50.772;7.730;2023-03-03T01:00:49;2.08;69.38
67093;SHT31;54011;50.772;7.730;2023-03-03T01:03:23;1.94;69.48
67093;SHT31;54011;50.772;7.730;2023-03-03T01:05:50;1.95;69.48
67093;SHT31;54011;50.772;7.730;2023-03-03T01:08:16;1.95;69.45
67093;SHT31;54011;50.772;7.730;2023-03-03T01:10:48;1.71;69.93
67093;SHT31;54011;50.772;7.730;2023-03-03T01:13:16;1.47;70.19
67093;SHT31;54011;50.772;7.730;2023-03-03T01:15:42;0.96;72.03
67093;SHT31;54011;50.772;7.730;2023-03-03T01:18:10;1.43;71.43
67093;SHT31;54011;50.772;7.730;2023-03-03T01:20:36;1.42;71.13
67093;SHT31;54011;50.772;7.730;2023-03-03T01:23:02;1.54;71.00
67093;SHT31;54011;50.772;7.730;2023-03-03T01:25:30;1.46;71.44
67093;SHT31;54011;50.772;7.730;2023-03-03T01:27:58;1.66;71.10
67093;SHT31;54011;50.772;7.730;2023-03-03T01:30:24;1.63;71.19
67093;SHT31;54011;50.772;7.730;2023-03-03T01:32:50;1.29;71.43
67093;SHT31;54011;50.772;7.730;2023-03-03T01:35:16;1.13;72.05
67093;SHT31;54011;50.772;7.730;2023-03-03T01:37:43;1.21;71.20
67093;SHT31;54011;50.772;7.730;2023-03-03T01:40:19;1.09;70.99
67093;SHT31;54011;50.772;7.730;2023-03-03T01:42:45;1.15;71.51
67093;SHT31;54011;50.772;7.730;2023-03-03T01:47:54;1.28;71.29
67093;SHT31;54011;50.772;7.730;2023-03-03T01:53:14;0.81;72.19
67093;SHT31;54011;50.772;7.730;2023-03-03T01:55:42;0.60;72.68
67093;SHT31;54011;50.772;7.730;2023-03-03T01:58:40;0.78;72.20
67093;SHT31;54011;50.772;7.730;2023-03-03T02:01:13;0.68;72.39
67093;SHT31;54011;50.772;7.730;2023-03-03T02:03:40;0.64;72.36
67093;SHT31;54011;50.772;7.730;2023-03-03T02:06:09;0.60;72.35
67093;SHT31;54011;50.772;7.730;2023-03-03T02:08:50;0.72;72.75
67093;SHT31;54011;50.772;7.730;2023-03-03T02:11:17;0.78;72.82
67093;SHT31;54011;50.772;7.730;2023-03-03T02:13:43;0.95;72.41
67093;SHT31;54011;50.772;7.730;2023-03-03T02:16:09;0.85;72.71
67093;SHT31;54011;50.772;7.730;2023-03-03T02:18:35;0.98;72.99
67093;SHT31;54011;50.772;7.730;2023-03-03T02:23:40;0.99;72.60
67093;SHT31;54011;50.772;7.730;2023-03-03T02:26:10;0.95;72.55
67093;SHT31;54011;50.772;7.730;2023-03-03T02:28:39;0.71;73.33
67093;SHT31;54011;50.772;7.730;2023-03-03T02:31:12;0.72;73.00
67093;SHT31;54011;50.772;7.730;2023-03-03T02:33:44;0.54;73.39
67093;SHT31;54011;50.772;7.730;2023-03-03T02:36:21;0.47;73.20
67093;SHT31;54011;50.772;7.730;2023-03-03T02:38:56;0.54;73.27
67093;SHT31;54011;50.772;7.730;2023-03-03T02:41:41;0.41;73.49
67093;SHT31;54011;50.772;7.730;2023-03-03T02:44:14;0.16;73.89
67093;SHT31;54011;50.772;7.730;2023-03-03T02:46:44;0.05;74.29
67093;SHT31;54011;50.772;7.730;2023-03-03T02:49:12;0.01;74.84
67093;SHT31;54011;50.772;7.730;2023-03-03T02:51:38;0.07;74.73
67093;SHT31;54011;50.772;7.730;2023-03-03T02:54:05;0.13;74.87
67093;SHT31;54011;50.772;7.730;2023-03-03T02:56:32;0.07;74.56
67093;SHT31;54011;50.772;7.730;2023-03-03T02:58:58;0.19;74.47
67093;SHT31;54011;50.772;7.730;2023-03-03T03:01:24;0.33;73.81
67093;SHT31;54011;50.772;7.730;2023-03-03T03:03:52;0.34;73.90
67093;SHT31;54011;50.772;7.730;2023-03-03T03:06:19;0.32;73.84
67093;SHT31;54011;50.772;7.730;2023-03-03T03:08:45;0.17;74.29
67093;SHT31;54011;50.772;7.730;2023-03-03T03:11:11;0.05;74.51
67093;SHT31;54011;50.772;7.730;2023-03-03T03:13:38;-0.05;74.79
67093;SHT31;54011;50.772;7.730;2023-03-03T03:16:04;0.01;74.74
67093;SHT31;54011;50.772;7.730;2023-03-03T03:18:30;0.05;74.32
67093;SHT31;54011;50.772;7.730;2023-03-03T03:20:56;0.01;74.26
67093;SHT31;54011;50.772;7.730;2023-03-03T03:23:22;-0.01;74.75
67093;SHT31;54011;50.772;7.730;2023-03-03T03:25:47;-0.01;74.90
67093;SHT31;54011;50.772;7.730;2023-03-03T03:28:21;0.01;74.73
67093;SHT31;54011;50.772;7.730;2023-03-03T03:30:49;-0.08;75.13
67093;SHT31;54011;50.772;7.730;2023-03-03T03:33:15;-0.02;74.18
67093;SHT31;54011;50.772;7.730;2023-03-03T03:35:40;-0.30;74.97
67093;SHT31;54011;50.772;7.730;2023-03-03T03:38:11;-0.04;74.97
67093;SHT31;54011;50.772;7.730;2023-03-03T03:40:37;0.02;74.44
67093;SHT31;54011;50.772;7.730;2023-03-03T03:43:03;0.09;74.46
67093;SHT31;54011;50.772;7.730;2023-03-03T03:45:29;0.07;74.11
67093;SHT31;54011;50.772;7.730;2023-03-03T03:47:54;0.20;74.09
67093;SHT31;54011;50.772;7.730;2023-03-03T03:50:20;0.17;74.21
67093;SHT31;54011;50.772;7.730;2023-03-03T03:52:46;0.07;74.36
67093;SHT31;54011;50.772;7.730;2023-03-03T03:55:12;0.05;74.77
67093;SHT31;54011;50.772;7.730;2023-03-03T03:57:39;0.06;74.94
67093;SHT31;54011;50.772;7.730;2023-03-03T04:00:06;0.17;74.95
67093;SHT31;54011;50.772;7.730;2023-03-03T04:02:39;0.20;74.79
67093;SHT31;54011;50.772;7.730;2023-03-03T04:05:05;-0.08;75.13
67093;SHT31;54011;50.772;7.730;2023-03-03T04:07:32;0.20;74.44
67093;SHT31;54011;50.772;7.730;2023-03-03T04:09:59;-0.02;74.95
67093;SHT31;54011;50.772;7.730;2023-03-03T04:12:25;-0.23;75.11
67093;SHT31;54011;50.772;7.730;2023-03-03T04:14:51;-0.36;75.46
67093;SHT31;54011;50.772;7.730;2023-03-03T04:17:21;-0.38;75.04
67093;SHT31;54011;50.772;7.730;2023-03-03T04:19:51;-0.49;75.20
67093;SHT31;54011;50.772;7.730;2023-03-03T04:22:18;-0.60;75.06
67093;SHT31;54011;50.772;7.730;2023-03-03T04:24:44;-0.70;75.07
67093;SHT31;54011;50.772;7.730;2023-03-03T04:27:13;-0.62;75.80
67093;SHT31;54011;50.772;7.730;2023-03-03T04:29:40;-0.66;75.74
67093;SHT31;54011;50.772;7.730;2023-03-03T04:32:06;-0.60;76.19
67093;SHT31;54011;50.772;7.730;2023-03-03T04:34:32;-0.50;76.26
67093;SHT31;54011;50.772;7.730;2023-03-03T04:36:58;-0.81;77.29
67093;SHT31;54011;50.772;7.730;2023-03-03T04:39:24;-0.60;76.66
67093;SHT31;54011;50.772;7.730;2023-03-03T04:41:51;-0.66;76.47
67093;SHT31;54011;50.772;7.730;2023-03-03T04:44:17;-0.63;77.09
67093;SHT31;54011;50.772;7.730;2023-03-03T04:46:43;-0.49;76.60
67093;SHT31;54011;50.772;7.730;2023-03-03T04:49:08;-0.49;76.18
67093;SHT31;54011;50.772;7.730;2023-03-03T04:51:35;-0.49;76.33
67093;SHT31;54011;50.772;7.730;2023-03-03T04:54:00;-0.55;76.53
67093;SHT31;54011;50.772;7.730;2023-03-03T04:56:26;-0.80;76.75
67093;SHT31;54011;50.772;7.730;2023-03-03T04:58:54;-1.01;77.61
67093;SHT31;54011;50.772;7.730;2023-03-03T05:01:19;-0.77;76.63
67093;SHT31;54011;50.772;7.730;2023-03-03T05:03:45;-0.53;76.34
67093;SHT31;54011;50.772;7.730;2023-03-03T05:06:12;-0.67;76.01
67093;SHT31;54011;50.772;7.730;2023-03-03T05:08:37;-0.69;76.73
67093;SHT31;54011;50.772;7.730;2023-03-03T05:11:03;-0.72;76.25
67093;SHT31;54011;50.772;7.730;2023-03-03T05:13:30;-0.69;76.38
67093;SHT31;54011;50.772;7.730;2023-03-03T05:15:56;-0.73;76.33
67093;SHT31;54011;50.772;7.730;2023-03-03T05:18:23;-0.66;75.52
67093;SHT31;54011;50.772;7.730;2023-03-03T05:20:50;-0.77;75.50
67093;SHT31;54011;50.772;7.730;2023-03-03T05:23:16;-1.10;76.46
67093;SHT31;54011;50.772;7.730;2023-03-03T05:25:42;-0.94;76.24
67093;SHT31;54011;50.772;7.730;2023-03-03T05:28:09;-0.93;76.26
67093;SHT31;54011;50.772;7.730;2023-03-03T05:30:36;-1.21;76.87
67093;SHT31;54011;50.772;7.730;2023-03-03T05:33:04;-1.00;76.46
67093;SHT31;54011;50.772;7.730;2023-03-03T05:35:29;-0.97;76.26
67093;SHT31;54011;50.772;7.730;2023-03-03T05:37:56;-0.96;76.37
67093;SHT31;54011;50.772;7.730;2023-03-03T05:40:24;-0.91;75.97
67093;SHT31;54011;50.772;7.730;2023-03-03T05:42:50;-0.87;75.94
67093;SHT31;54011;50.772;7.730;2023-03-03T05:45:16;-0.91;76.72
67093;SHT31;54011;50.772;7.730;2023-03-03T05:47:45;-0.84;76.38
67093;SHT31;54011;50.772;7.730;2023-03-03T05:50:11;-1.10;77.16
67093;SHT31;54011;50.772;7.730;2023-03-03T05:52:36;-0.98;76.29
67093;SHT31;54011;50.772;7.730;2023-03-03T05:55:02;-1.21;76.95
67093;SHT31;54011;50.772;7.730;2023-03-03T05:57:27;-1.21;76.76
67093;SHT31;54011;50.772;7.730;2023-03-03T05:59:53;-1.48;77.55
67093;SHT31;54011;50.772;7.730;2023-03-03T06:02:20;-1.47;77.37
67093;SHT31;54011;50.772;7.730;2023-03-03T06:04:45;-1.41;76.73
67093;SHT31;54011;50.772;7.730;2023-03-03T06:07:12;-1.54;78.01
67093;SHT31;54011;50.772;7.730;2023-03-03T06:09:38;-1.51;77.41
67093;SHT31;54011;50.772;7.730;2023-03-03T06:12:03;-1.41;77.14
67093;SHT31;54011;50.772;7.730;2023-03-03T06:14:29;-1.49;77.79
67093;SHT31;54011;50.772;7.730;2023-03-03T06:16:56;-1.48;77.53
67093;SHT31;54011;50.772;7.730;2023-03-03T06:19:24;-1.52;77.22
67093;SHT31;54011;50.772;7.730;2023-03-03T06:21:50;-1.51;77.53
67093;SHT31;54011;50.772;7.730;2023-03-03T06:24:16;-1.31;76.91
67093;SHT31;54011;50.772;7.730;2023-03-03T06:26:42;-1.22;77.29
67093;SHT31;54011;50.772;7.730;2023-03-03T06:29:07;-1.17;77.12
67093;SHT31;54011;50.772;7.730;2023-03-03T06:31:33;-1.11;76.77
67093;SHT31;54011;50.772;7.730;2023-03-03T06:33:59;-1.15;76.25
67093;SHT31;54011;50.772;7.730;2023-03-03T06:36:24;-1.17;76.49
67093;SHT31;54011;50.772;7.730;2023-03-03T06:38:50;-1.28;76.92
67093;SHT31;54011;50.772;7.730;2023-03-03T06:41:16;-1.05;76.84
67093;SHT31;54011;50.772;7.730;2023-03-03T06:43:42;-1.08;77.23
67093;SHT31;54011;50.772;7.730;2023-03-03T06:46:09;-1.14;77.01
67093;SHT31;54011;50.772;7.730;2023-03-03T06:48:35;-1.04;76.87
67093;SHT31;54011;50.772;7.730;2023-03-03T06:51:08;-1.15;77.12
67093;SHT31;54011;50.772;7.730;2023-03-03T06:53:39;-1.21;77.14
67093;SHT31;54011;50.772;7.730;2023-03-03T06:56:08;-1.28;77.59
67093;SHT31;54011;50.772;7.730;2023-03-03T06:58:34;-1.08;77.39
67093;SHT31;54011;50.772;7.730;2023-03-03T07:01:00;-1.17;77.14
67093;SHT31;54011;50.772;7.730;2023-03-03T07:03:32;-1.08;76.69
67093;SHT31;54011;50.772;7.730;2023-03-03T07:06:00;-1.15;77.27
67093;SHT31;54011;50.772;7.730;2023-03-03T07:08:30;-1.12;77.53
67093;SHT31;54011;50.772;7.730;2023-03-03T07:11:06;-1.12;77.79
67093;SHT31;54011;50.772;7.730;2023-03-03T07:13:32;-0.89;77.13
67093;SHT31;54011;50.772;7.730;2023-03-03T07:16:12;-0.65;77.32
67093;SHT31;54011;50.772;7.730;2023-03-03T07:18:47;-0.60;77.15
67093;SHT31;54011;50.772;7.730;2023-03-03T07:21:27;-0.73;78.96
67093;SHT31;54011;50.772;7.730;2023-03-03T07:23:56;-0.48;77.55
67093;SHT31;54011;50.772;7.730;2023-03-03T07:26:30;-0.50;78.32
67093;SHT31;54011;50.772;7.730;2023-03-03T07:29:00;-0.29;77.58
67093;SHT31;54011;50.772;7.730;2023-03-03T07:31:33;-0.33;77.81
67093;SHT31;54011;50.772;7.730;2023-03-03T07:34:02;-0.26;78.08
67093;SHT31;54011;50.772;7.730;2023-03-03T07:36:34;-0.05;77.42
67093;SHT31;54011;50.772;7.730;2023-03-03T07:39:03;-0.18;78.13
67093;SHT31;54011;50.772;7.730;2023-03-03T07:41:35;0.01;77.54
67093;SHT31;54011;50.772;7.730;2023-03-03T07:44:16;-0.04;77.31
67093;SHT31;54011;50.772;7.730;2023-03-03T07:46:44;0.22;77.00
67093;SHT31;54011;50.772;7.730;2023-03-03T07:49:22;0.09;76.44
67093;SHT31;54011;50.772;7.730;2023-03-03T07:51:55;0.30;76.33
67093;SHT31;54011;50.772;7.730;2023-03-03T07:59:59;0.57;76.05
67093;SHT31;54011;50.772;7.730;2023-03-03T08:05:41;0.75;76.17
67093;SHT31;54011;50.772;7.730;2023-03-03T08:10:44;0.65;77.40
67093;SHT31;54011;50.772;7.730;2023-03-03T08:13:19;0.87;76.93
67093;SHT31;54011;50.772;7.730;2023-03-03T08:15:47;0.88;77.26
67093;SHT31;54011;50.772;7.730;2023-03-03T08:20:54;1.31;76.72
67093;SHT31;54011;50.772;7.730;2023-03-03T08:23:20;1.71;76.04
67093;SHT31;54011;50.772;7.730;2023-03-03T08:25:47;2.20;73.99
67093;SHT31;54011;50.772;7.730;2023-03-03T08:28:14;2.31;73.78
67093;SHT31;54011;50.772;7.730;2023-03-03T08:30:40;2.83;72.60
67093;SHT31;54011;50.772;7.730;2023-03-03T08:33:06;3.05;72.23
67093;SHT31;54011;50.772;7.730;2023-03-03T08:35:32;3.17;72.27
67093;SHT31;54011;50.772;7.730;2023-03-03T08:37:57;3.32;71.59
67093;SHT31;54011;50.772;7.730;2023-03-03T08:40:23;3.14;71.99
67093;SHT31;54011;50.772;7.730;2023-03-03T08:42:48;3.00;72.90
67093;SHT31;54011;50.772;7.730;2023-03-03T08:45:14;3.24;71.45
67093;SHT31;54011;50.772;7.730;2023-03-03T08:47:40;2.93;72.21
67093;SHT31;54011;50.772;7.730;2023-03-03T08:50:07;3.25;72.16
67093;SHT31;54011;50.772;7.730;2023-03-03T08:52:33;3.64;72.05
67093;SHT31;54011;50.772;7.730;2023-03-03T08:55:01;3.62;71.94
67093;SHT31;54011;50.772;7.730;2023-03-03T08:57:27;3.35;72.80
67093;SHT31;54011;50.772;7.730;2023-03-03T08:59:54;3.78;72.39
67093;SHT31;54011;50.772;7.730;2023-03-03T09:02:20;3.85;72.66
67093;SHT31;54011;50.772;7.730;2023-03-03T09:04:47;3.48;72.93
67093;SHT31;54011;50.772;7.730;2023-03-03T09:07:13;3.68;72.23
67093;SHT31;54011;50.772;7.730;2023-03-03T09:09:39;3.36;74.82
67093;SHT31;54011;50.772;7.730;2023-03-03T09:12:15;3.42;74.01
67093;SHT31;54011;50.772;7.730;2023-03-03T09:14:41;3.32;74.24
67093;SHT31;54011;50.772;7.730;2023-03-03T09:17:28;3.87;72.90
67093;SHT31;54011;50.772;7.730;2023-03-03T09:19:57;4.09;72.09
67093;SHT31;54011;50.772;7.730;2023-03-03T09:22:24;4.34;71.66
67093;SHT31;54011;50.772;7.730;2023-03-03T09:24:53;4.16;72.32
67093;SHT31;54011;50.772;7.730;2023-03-03T09:27:30;4.54;71.16
67093;SHT31;54011;50.772;7.730;2023-03-03T09:30:00;4.78;70.13
67093;SHT31;54011;50.772;7.730;2023-03-03T09:32:34;4.79;70.87
67093;SHT31;54011;50.772;7.730;2023-03-03T09:35:33;4.88;70.13
67093;SHT31;54011;50.772;7.730;2023-03-03T09:38:23;5.37;69.85
67093;SHT31;54011;50.772;7.730;2023-03-03T09:41:00;5.32;69.36
67093;SHT31;54011;50.772;7.730;2023-03-03T09:43:41;5.58;68.47
67093;SHT31;54011;50.772;7.730;2023-03-03T09:48:55;6.37;66.55
67093;SHT31;54011;50.772;7.730;2023-03-03T09:57:15;6.76;64.17
67093;SHT31;54011;50.772;7.730;2023-03-03T10:02:27;6.43;64.92
67093;SHT31;54011;50.772;7.730;2023-03-03T10:05:17;7.11;63.81
67093;SHT31;54011;50.772;7.730;2023-03-03T10:10:55;7.25;63.00
67093;SHT31;54011;50.772;7.730;2023-03-03T10:14:05;7.54;62.54
67093;SHT31;54011;50.772;7.730;2023-03-03T10:19:25;8.11;61.14
67093;SHT31;54011;50.772;7.730;2023-03-03T10:22:13;7.91;61.14
67093;SHT31;54011;50.772;7.730;2023-03-03T10:24:49;7.97;60.86
67093;SHT31;54011;50.772;7.730;2023-03-03T10:30:43;8.26;60.40
67093;SHT31;54011;50.772;7.730;2023-03-03T10:38:34;9.31;57.19
67093;SHT31;54011;50.772;7.730;2023-03-03T10:41:17;8.96;58.50
67093;SHT31;54011;50.772;7.730;2023-03-03T10:44:13;9.47;57.82
67093;SHT31;54011;50.772;7.730;2023-03-03T10:52:25;10.06;56.51
67093;SHT31;54011;50.772;7.730;2023-03-03T10:55:26;10.33;54.89
67093;SHT31;54011;50.772;7.730;2023-03-03T11:01:12;10.25;54.63
67093;SHT31;54011;50.772;7.730;2023-03-03T11:04:13;10.02;54.84
67093;SHT31;54011;50.772;7.730;2023-03-03T11:06:45;9.70;56.57
67093;SHT31;54011;50.772;7.730;2023-03-03T11:11:51;11.10;52.64
67093;SHT31;54011;50.772;7.730;2023-03-03T11:17:37;11.18;52.21
67093;SHT31;54011;50.772;7.730;2023-03-03T11:20:23;11.07;53.23
67093;SHT31;54011;50.772;7.730;2023-03-03T11:23:02;10.71;53.35
67093;SHT31;54011;50.772;7.730;2023-03-03T11:25:43;10.57;53.60
67093;SHT31;54011;50.772;7.730;2023-03-03T11:28:48;10.90;52.63
67093;SHT31;54011;50.772;7.730;2023-03-03T11:37:06;11.43;51.61
67093;SHT31;54011;50.772;7.730;2023-03-03T11:39:33;10.53;53.12
67093;SHT31;54011;50.772;7.730;2023-03-03T11:42:14;11.19;51.71
67093;SHT31;54011;50.772;7.730;2023-03-03T11:44:59;11.18;51.96
67093;SHT31;54011;50.772;7.730;2023-03-03T11:47:29;11.32;52.04
67093;SHT31;54011;50.772;7.730;2023-03-03T11:50:11;11.29;52.08
67093;SHT31;54011;50.772;7.730;2023-03-03T11:55:35;11.38;51.74
67093;SHT31;54011;50.772;7.730;2023-03-03T11:58:22;11.58;51.02
67093;SHT31;54011;50.772;7.730;2023-03-03T12:09:27;11.98;49.90
67093;SHT31;54011;50.772;7.730;2023-03-03T12:12:14;12.51;48.92
67093;SHT31;54011;50.772;7.730;2023-03-03T12:20:42;12.78;49.70
67093;SHT31;54011;50.772;7.730;2023-03-03T12:32:06;12.64;49.85
67093;SHT31;54011;50.772;7.730;2023-03-03T12:47:49;13.09;49.11
67093;SHT31;54011;50.772;7.730;2023-03-03T12:50:29;13.30;48.21
67093;SHT31;54011;50.772;7.730;2023-03-03T12:56:07;12.06;49.79
67093;SHT31;54011;50.772;7.730;2023-03-03T12:58:55;12.18;50.58
67093;SHT31;54011;50.772;7.730;2023-03-03T13:01:38;12.41;50.13
67093;SHT31;54011;50.772;7.730;2023-03-03T13:17:33;12.89;48.45
67093;SHT31;54011;50.772;7.730;2023-03-03T13:20:29;12.47;50.68
67093;SHT31;54011;50.772;7.730;2023-03-03T13:23:05;12.82;48.98
67093;SHT31;54011;50.772;7.730;2023-03-03T13:28:16;12.49;49.53
67093;SHT31;54011;50.772;7.730;2023-03-03T13:30:48;11.77;50.96
67093;SHT31;54011;50.772;7.730;2023-03-03T13:35:54;11.73;50.90
67093;SHT31;54011;50.772;7.730;2023-03-03T13:38:33;11.80;51.44
67093;SHT31;54011;50.772;7.730;2023-03-03T13:41:06;12.26;50.54
67093;SHT31;54011;50.772;7.730;2023-03-03T13:47:15;13.37;49.54
67093;SHT31;54011;50.772;7.730;2023-03-03T13:50:31;12.59;49.37
67093;SHT31;54011;50.772;7.730;2023-03-03T13:53:26;12.99;49.56
67093;SHT31;54011;50.772;7.730;2023-03-03T14:02:01;13.09;48.21
67093;SHT31;54011;50.772;7.730;2023-03-03T14:04:49;12.45;49.35
67093;SHT31;54011;50.772;7.730;2023-03-03T14:07:22;13.36;48.16
67093;SHT31;54011;50.772;7.730;2023-03-03T14:13:02;13.34;47.71
67093;SHT31;54011;50.772;7.730;2023-03-03T14:15:40;12.26;49.97
67093;SHT31;54011;50.772;7.730;2023-03-03T14:21:06;13.15;48.59
67093;SHT31;54011;50.772;7.730;2023-03-03T14:24:05;12.27;49.92
67093;SHT31;54011;50.772;7.730;2023-03-03T14:26:45;11.35;51.52
67093;SHT31;54011;50.772;7.730;2023-03-03T14:29:30;11.75;51.02
67093;SHT31;54011;50.772;7.730;2023-03-03T14:31:59;12.55;49.71
67093;SHT31;54011;50.772;7.730;2023-03-03T14:34:35;12.54;49.46
67093;SHT31;54011;50.772;7.730;2023-03-03T14:40:21;11.69;51.84
67093;SHT31;54011;50.772;7.730;2023-03-03T14:42:54;12.92;48.75
67093;SHT31;54011;50.772;7.730;2023-03-03T14:45:37;12.51;48.65
67093;SHT31;54011;50.772;7.730;2023-03-03T14:48:21;12.85;48.85
67093;SHT31;54011;50.772;7.730;2023-03-03T14:53:38;11.76;51.08
67093;SHT31;54011;50.772;7.730;2023-03-03T14:56:16;12.59;49.62
67093;SHT31;54011;50.772;7.730;2023-03-03T14:58:46;12.12;50.48
67093;SHT31;54011;50.772;7.730;2023-03-03T15:03:56;12.59;49.37
67093;SHT31;54011;50.772;7.730;2023-03-03T15:06:47;13.28;47.79
67093;SHT31;54011;50.772;7.730;2023-03-03T15:09:33;12.97;48.44
67093;SHT31;54011;50.772;7.730;2023-03-03T15:15:19;12.30;49.80
67093;SHT31;54011;50.772;7.730;2023-03-03T15:23:18;12.28;50.10
67093;SHT31;54011;50.772;7.730;2023-03-03T15:28:35;12.06;50.54
67093;SHT31;54011;50.772;7.730;2023-03-03T15:34:02;11.69;51.30
67093;SHT31;54011;50.772;7.730;2023-03-03T15:36:45;11.65;51.82
67093;SHT31;54011;50.772;7.730;2023-03-03T15:39:41;13.02;48.67
67093;SHT31;54011;50.772;7.730;2023-03-03T15:47:24;11.10;51.91
67093;SHT31;54011;50.772;7.730;2023-03-03T15:55:48;11.46;51.51
67093;SHT31;54011;50.772;7.730;2023-03-03T16:03:46;11.22;52.01
67093;SHT31;54011;50.772;7.730;2023-03-03T16:06:33;10.76;53.61
67093;SHT31;54011;50.772;7.730;2023-03-03T16:09:09;10.83;53.66
67093;SHT31;54011;50.772;7.730;2023-03-03T16:11:49;11.45;51.95
67093;SHT31;54011;50.772;7.730;2023-03-03T16:20:05;11.25;52.72
67093;SHT31;54011;50.772;7.730;2023-03-03T16:22:47;11.70;52.20
67093;SHT31;54011;50.772;7.730;2023-03-03T16:30:33;10.61;53.82
67093;SHT31;54011;50.772;7.730;2023-03-03T16:33:14;10.16;55.54
67093;SHT31;54011;50.772;7.730;2023-03-03T16:36:01;9.89;55.36
67093;SHT31;54011;50.772;7.730;2023-03-03T16:38:33;9.96;55.69
67093;SHT31;54011;50.772;7.730;2023-03-03T16:41:06;9.41;56.83
67093;SHT31;54011;50.772;7.730;2023-03-03T16:46:47;9.30;57.54
67093;SHT31;54011;50.772;7.730;2023-03-03T16:52:06;8.59;59.29
67093;SHT31;54011;50.772;7.730;2023-03-03T16:54:46;8.33;59.92
67093;SHT31;54011;50.772;7.730;2023-03-03T16:57:31;7.75;61.33
67093;SHT31;54011;50.772;7.730;2023-03-03T17:03:33;6.91;64.23
67093;SHT31;54011;50.772;7.730;2023-03-03T17:06:30;6.28;66.44
67093;SHT31;54011;50.772;7.730;2023-03-03T17:11:55;5.98;67.62
67093;SHT31;54011;50.772;7.730;2023-03-03T17:14:49;5.95;67.32
67093;SHT31;54011;50.772;7.730;2023-03-03T17:20:27;5.42;69.54
67093;SHT31;54011;50.772;7.730;2023-03-03T17:25:43;5.36;69.59
67093;SHT31;54011;50.772;7.730;2023-03-03T17:31:00;5.09;70.59
67093;SHT31;54011;50.772;7.730;2023-03-03T17:36:54;4.89;71.53
67093;SHT31;54011;50.772;7.730;2023-03-03T17:47:08;4.72;71.78
67093;SHT31;54011;50.772;7.730;2023-03-03T17:49:56;4.57;71.98
67093;SHT31;54011;50.772;7.730;2023-03-03T17:52:38;4.51;72.39
67093;SHT31;54011;50.772;7.730;2023-03-03T17:58:16;4.37;73.28
67093;SHT31;54011;50.772;7.730;2023-03-03T18:01:09;4.36;72.80
67093;SHT31;54011;50.772;7.730;2023-03-03T18:04:10;4.37;72.87
67093;SHT31;54011;50.772;7.730;2023-03-03T18:07:06;4.24;73.28
67093;SHT31;54011;50.772;7.730;2023-03-03T18:21:01;3.97;74.20
67093;SHT31;54011;50.772;7.730;2023-03-03T18:23:32;4.03;74.06
67093;SHT31;54011;50.772;7.730;2023-03-03T18:26:04;4.07;74.21
67093;SHT31;54011;50.772;7.730;2023-03-03T18:28:50;4.11;74.03
67093;SHT31;54011;50.772;7.730;2023-03-03T18:31:21;4.14;73.55
67093;SHT31;54011;50.772;7.730;2023-03-03T18:34:08;4.29;73.54
67093;SHT31;54011;50.772;7.730;2023-03-03T18:36:55;3.92;74.41
67093;SHT31;54011;50.772;7.730;2023-03-03T18:39:42;3.92;74.47
67093;SHT31;54011;50.772;7.730;2023-03-03T18:44:42;3.58;75.75
67093;SHT31;54011;50.772;7.730;2023-03-03T18:47:10;3.65;75.27
67093;SHT31;54011;50.772;7.730;2023-03-03T18:49:54;3.65;75.14
67093;SHT31;54011;50.772;7.730;2023-03-03T18:52:27;3.48;75.90
67093;SHT31;54011;50.772;7.730;2023-03-03T18:57:37;3.45;75.84
67093;SHT31;54011;50.772;7.730;2023-03-03T19:00:22;3.30;76.37
67093;SHT31;54011;50.772;7.730;2023-03-03T19:02:53;3.35;76.30
67093;SHT31;54011;50.772;7.730;2023-03-03T19:05:36;3.38;76.16
67093;SHT31;54011;50.772;7.730;2023-03-03T19:08:26;3.54;76.01
67093;SHT31;54011;50.772;7.730;2023-03-03T19:11:00;3.65;75.30
67093;SHT31;54011;50.772;7.730;2023-03-03T19:16:05;3.28;75.99
67093;SHT31;54011;50.772;7.730;2023-03-03T19:21:25;3.23;76.60
67093;SHT31;54011;50.772;7.730;2023-03-03T19:23:58;3.32;76.42
67093;SHT31;54011;50.772;7.730;2023-03-03T19:34:48;2.97;77.42
67093;SHT31;54011;50.772;7.730;2023-03-03T19:52:16;3.08;76.54
67093;SHT31;54011;50.772;7.730;2023-03-03T20:00:40;2.89;77.05
67093;SHT31;54011;50.772;7.730;2023-03-03T20:06:31;3.10;76.40
67093;SHT31;54011;50.772;7.730;2023-03-03T20:09:03;3.03;76.76
67093;SHT31;54011;50.772;7.730;2023-03-03T20:17:16;3.00;76.23
67093;SHT31;54011;50.772;7.730;2023-03-03T20:31:37;2.66;76.46
67093;SHT31;54011;50.772;7.730;2023-03-03T20:34:26;2.62;76.36
67093;SHT31;54011;50.772;7.730;2023-03-03T20:37:10;2.80;76.29
67093;SHT31;54011;50.772;7.730;2023-03-03T20:42:46;2.66;76.61
67093;SHT31;54011;50.772;7.730;2023-03-03T20:48:14;2.46;76.83
67093;SHT31;54011;50.772;7.730;2023-03-03T20:56:12;2.39;76.85
67093;SHT31;54011;50.772;7.730;2023-03-03T21:01:25;2.05;77.90
67093;SHT31;54011;50.772;7.730;2023-03-03T21:03:53;2.28;77.24
67093;SHT31;54011;50.772;7.730;2023-03-03T21:06:19;2.25;77.00
67093;SHT31;54011;50.772;7.730;2023-03-03T21:11:40;2.08;77.06
67093;SHT31;54011;50.772;7.730;2023-03-03T21:14:22;2.01;77.41
67093;SHT31;54011;50.772;7.730;2023-03-03T21:16:51;1.98;77.24
67093;SHT31;54011;50.772;7.730;2023-03-03T21:19:32;2.08;77.19
67093;SHT31;54011;50.772;7.730;2023-03-03T21:22:02;1.81;78.26
67093;SHT31;54011;50.772;7.730;2023-03-03T21:24:50;1.67;78.20
67093;SHT31;54011;50.772;7.730;2023-03-03T21:27:32;1.93;77.52
67093;SHT31;54011;50.772;7.730;2023-03-03T21:30:12;1.70;78.17
67093;SHT31;54011;50.772;7.730;2023-03-03T21:32:44;1.71;77.87
67093;SHT31;54011;50.772;7.730;2023-03-03T21:35:11;1.66;77.94
67093;SHT31;54011;50.772;7.730;2023-03-03T21:37:54;1.78;77.48